sensor_id;sensor_type;location;lat;lon;timestamp;pressure;altitude;pressure_sealevel;temperature;humidity
75794;BME280;64418;47.536;19.074;2023-01-28T00:01:19;100367.75;;;0.67;86.19
75794;BME280;64418;47.536;19.074;2023-01-28T00:03:48;100380.09;;;0.68;85.77
75794;BME280;64418;47.536;19.074;2023-01-28T00:06:14;100377.41;;;0.68;85.74
75794;BME280;64418;47.536;19.074;2023-01-28T00:08:41;100371.12;;;0.69;85.73
75794;BME280;64418;47.536;19.074;2023-01-28T00:11:09;100372.09;;;0.68;85.60
75794;BME280;64418;47.536;19.074;2023-01-28T00:13:36;100379.81;;;0.71;85.05
75794;BME280;64418;47.536;19.074;2023-01-28T00:16:04;100376.16;;;0.72;84.75
75794;BME280;64418;47.536;19.074;2023-01-28T00:18:32;100372.50;;;0.73;84.56
75794;BME280;64418;47.536;19.074;2023-01-28T00:20:58;100372.50;;;0.73;84.48
75794;BME280;64418;47.536;19.074;2023-01-28T00:23:25;100370.44;;;0.67;84.52
75794;BME280;64418;47.536;19.074;2023-01-28T00:25:52;100380.22;;;0.76;84.20
75794;BME280;64418;47.536;19.074;2023-01-28T00:28:18;100379.25;;;0.77;83.39
75794;BME280;64418;47.536;19.074;2023-01-28T00:30:44;100387.09;;;0.79;83.14
75794;BME280;64418;47.536;19.074;2023-01-28T00:33:09;100380.09;;;0.78;83.10
75794;BME280;64418;47.536;19.074;2023-01-28T00:35:35;100386.09;;;0.80;83.24
75794;BME280;64418;47.536;19.074;2023-01-28T00:38:01;100388.63;;;0.81;82.92
75794;BME280;64418;47.536;19.074;2023-01-28T00:40:28;100388.50;;;0.83;82.83
75794;BME280;64418;47.536;19.074;2023-01-28T00:42:56;100391.31;;;0.81;82.82
75794;BME280;64418;47.536;19.074;2023-01-28T00:45:21;100392.16;;;0.82;82.65
75794;BME280;64418;47.536;19.074;2023-01-28T00:47:47;100393.84;;;0.83;82.54
75794;BME280;64418;47.536;19.074;2023-01-28T00:50:13;100396.63;;;0.81;82.51
75794;BME280;64418;47.536;19.074;2023-01-28T00:52:39;100392.16;;;0.82;82.29
75794;BME280;64418;47.536;19.074;2023-01-28T00:55:06;100401.66;;;0.84;82.35
75794;BME280;64418;47.536;19.074;2023-01-28T00:57:32;100396.63;;;0.81;nan
75794;BME280;64418;47.536;19.074;2023-01-28T01:00:19;100402.66;;;0.83;81.88
75794;BME280;64418;47.536;19.074;2023-01-28T01:02:45;100401.97;;;0.81;81.54
75794;BME280;64418;47.536;19.074;2023-01-28T01:05:13;100401.00;;;0.82;81.54
75794;BME280;64418;47.536;19.074;2023-01-28T01:07:40;100397.31;;;0.83;81.21
75794;BME280;64418;47.536;19.074;2023-01-28T01:10:07;100399.84;;;0.85;80.69
75794;BME280;64418;47.536;19.074;2023-01-28T01:12:33;100410.37;;;0.86;80.94
75794;BME280;64418;47.536;19.074;2023-01-28T01:14:59;100405.06;;;0.86;80.85
75794;BME280;64418;47.536;19.074;2023-01-28T01:17:29;100399.97;;;0.83;81.27
75794;BME280;64418;47.536;19.074;2023-01-28T01:19:54;100404.34;;;0.84;81.79
75794;BME280;64418;47.536;19.074;2023-01-28T01:22:20;100407.97;;;0.83;82.22
75794;BME280;64418;47.536;19.074;2023-01-28T01:24:47;100406.31;;;0.82;82.43
75794;BME280;64418;47.536;19.074;2023-01-28T01:27:12;100404.94;;;0.78;82.63
75794;BME280;64418;47.536;19.074;2023-01-28T01:29:38;100404.94;;;0.78;82.70
75794;BME280;64418;47.536;19.074;2023-01-28T01:32:07;100398.88;;;0.76;82.78
75794;BME280;64418;47.536;19.074;2023-01-28T01:34:34;100397.78;;;0.79;82.67
75794;BME280;64418;47.536;19.074;2023-01-28T01:36:59;100401.53;;;0.76;82.76
75794;BME280;64418;47.536;19.074;2023-01-28T01:39:25;100411.22;;;0.77;82.88
75794;BME280;64418;47.536;19.074;2023-01-28T01:41:51;100407.72;;;0.77;82.94
75794;BME280;64418;47.536;19.074;2023-01-28T01:47:23;100401.84;;;0.73;82.95
75794;BME280;64418;47.536;19.074;2023-01-28T01:49:51;100404.22;;;0.76;83.12
75794;BME280;64418;47.536;19.074;2023-01-28T01:52:20;100405.34;;;0.74;83.28
75794;BME280;64418;47.536;19.074;2023-01-28T01:54:52;100412.50;;;0.73;83.53
75794;BME280;64418;47.536;19.074;2023-01-28T01:57:23;100411.81;;;0.71;83.65
75794;BME280;64418;47.536;19.074;2023-01-28T01:59:53;100410.97;;;0.71;83.84
75794;BME280;64418;47.536;19.074;2023-01-28T02:02:20;100402.97;;;0.71;83.74
75794;BME280;64418;47.536;19.074;2023-01-28T02:04:46;100415.59;;;0.69;84.07
75794;BME280;64418;47.536;19.074;2023-01-28T02:07:15;100406.47;;;0.71;83.92
75794;BME280;64418;47.536;19.074;2023-01-28T02:09:42;100410.81;;;0.72;84.04
75794;BME280;64418;47.536;19.074;2023-01-28T02:12:13;100410.13;;;0.70;84.34
75794;BME280;64418;47.536;19.074;2023-01-28T02:14:43;100409.41;;;0.68;84.53
75794;BME280;64418;47.536;19.074;2023-01-28T02:17:10;100407.03;;;0.65;84.77
75794;BME280;64418;47.536;19.074;2023-01-28T02:19:38;100410.72;;;0.64;85.00
75794;BME280;64418;47.536;19.074;2023-01-28T02:22:23;100409.87;;;0.64;85.42
75794;BME280;64418;47.536;19.074;2023-01-28T02:25:11;100405.63;;;0.61;85.55
75794;BME280;64418;47.536;19.074;2023-01-28T02:28:10;100402.28;;;0.59;85.79
75794;BME280;64418;47.536;19.074;2023-01-28T02:30:41;100398.91;;;0.57;85.89
75794;BME280;64418;47.536;19.074;2023-01-28T02:33:12;100398.91;;;0.57;85.83
75794;BME280;64418;47.536;19.074;2023-01-28T02:35:47;100404.22;;;0.57;85.88
75794;BME280;64418;47.536;19.074;2023-01-28T02:38:16;100397.09;;;0.58;85.97
75794;BME280;64418;47.536;19.074;2023-01-28T02:40:46;100405.25;;;0.56;86.07
75794;BME280;64418;47.536;19.074;2023-01-28T02:43:29;100401.84;;;0.54;86.40
75794;BME280;64418;47.536;19.074;2023-01-28T02:45:55;100392.16;;;0.53;86.63
75794;BME280;64418;47.536;19.074;2023-01-28T02:48:22;100391.78;;;0.48;86.86
75794;BME280;64418;47.536;19.074;2023-01-28T02:50:53;100398.62;;;0.51;87.18
75794;BME280;64418;47.536;19.074;2023-01-28T02:53:25;100403.13;;;0.50;87.37
75794;BME280;64418;47.536;19.074;2023-01-28T02:55:55;100404.25;;;0.47;87.40
75794;BME280;64418;47.536;19.074;2023-01-28T02:58:31;100396.25;;;0.47;87.44
75794;BME280;64418;47.536;19.074;2023-01-28T03:01:07;100399.78;;;0.48;87.20
75794;BME280;64418;47.536;19.074;2023-01-28T03:03:41;100402.28;;;0.49;87.22
75794;BME280;64418;47.536;19.074;2023-01-28T03:06:11;100394.44;;;0.48;87.48
75794;BME280;64418;47.536;19.074;2023-01-28T03:08:43;100398.09;;;0.47;87.52
75794;BME280;64418;47.536;19.074;2023-01-28T03:11:10;100400.88;;;0.45;87.71
75794;BME280;64418;47.536;19.074;2023-01-28T03:13:37;100396.69;;;0.43;87.98
75794;BME280;64418;47.536;19.074;2023-01-28T03:16:03;100402.84;;;0.43;87.88
75794;BME280;64418;47.536;19.074;2023-01-28T03:18:31;100402.00;;;0.43;87.89
75794;BME280;64418;47.536;19.074;2023-01-28T03:21:04;100399.06;;;0.46;87.46
75794;BME280;64418;47.536;19.074;2023-01-28T03:23:37;100395.41;;;0.47;87.62
75794;BME280;64418;47.536;19.074;2023-01-28T03:26:06;100400.88;;;0.45;87.62
75794;BME280;64418;47.536;19.074;2023-01-28T03:28:35;100389.13;;;0.48;87.28
75794;BME280;64418;47.536;19.074;2023-01-28T03:31:06;100398.62;;;0.51;87.29
75794;BME280;64418;47.536;19.074;2023-01-28T03:33:33;100394.44;;;0.48;87.19
75794;BME280;64418;47.536;19.074;2023-01-28T03:36:01;100373.56;;;0.34;87.45
75794;BME280;64418;47.536;19.074;2023-01-28T03:38:27;100395.41;;;0.47;87.46
75794;BME280;64418;47.536;19.074;2023-01-28T03:40:55;100397.22;;;0.46;87.46
75794;BME280;64418;47.536;19.074;2023-01-28T03:43:22;100407.03;;;0.46;87.61
75794;BME280;64418;47.536;19.074;2023-01-28T03:45:48;100407.03;;;0.46;87.65
75794;BME280;64418;47.536;19.074;2023-01-28T03:48:16;100414.50;;;0.42;88.07
75794;BME280;64418;47.536;19.074;2023-01-28T03:50:41;100410.97;;;0.42;88.39
75794;BME280;64418;47.536;19.074;2023-01-28T03:53:07;100417.44;;;0.39;88.62
75794;BME280;64418;47.536;19.074;2023-01-28T03:55:36;100415.75;;;0.38;88.86
75794;BME280;64418;47.536;19.074;2023-01-28T03:58:01;100406.91;;;0.38;88.94
75794;BME280;64418;47.536;19.074;2023-01-28T04:00:30;100414.91;;;0.38;89.03
75794;BME280;64418;47.536;19.074;2023-01-28T04:02:56;100409.56;;;0.38;88.85
75794;BME280;64418;47.536;19.074;2023-01-28T04:05:23;100411.41;;;0.37;88.98
75794;BME280;64418;47.536;19.074;2023-01-28T04:07:49;100412.41;;;0.36;89.08
75794;BME280;64418;47.536;19.074;2023-01-28T04:10:15;100416.87;;;0.36;89.20
75794;BME280;64418;47.536;19.074;2023-01-28T04:12:41;100412.25;;;0.38;88.88
75794;BME280;64418;47.536;19.074;2023-01-28T04:15:07;100414.09;;;0.37;88.87
75794;BME280;64418;47.536;19.074;2023-01-28T04:17:33;100408.47;;;0.40;88.70
75794;BME280;64418;47.536;19.074;2023-01-28T04:19:59;100413.25;;;0.37;88.73
75794;BME280;64418;47.536;19.074;2023-01-28T04:22:27;100402.59;;;0.37;88.50
75794;BME280;64418;47.536;19.074;2023-01-28T04:24:53;100415.75;;;0.38;88.40
75794;BME280;64418;47.536;19.074;2023-01-28T04:27:19;100420.81;;;0.41;88.46
75794;BME280;64418;47.536;19.074;2023-01-28T04:29:44;100420.81;;;0.41;88.37
75794;BME280;64418;47.536;19.074;2023-01-28T04:32:10;100430.47;;;0.42;88.40
75794;BME280;64418;47.536;19.074;2023-01-28T04:34:36;100430.63;;;0.41;88.59
75794;BME280;64418;47.536;19.074;2023-01-28T04:37:02;100427.97;;;0.41;88.88
75794;BME280;64418;47.536;19.074;2023-01-28T04:39:29;100418.84;;;0.34;88.96
75794;BME280;64418;47.536;19.074;2023-01-28T04:41:55;100428.94;;;0.40;88.94
75794;BME280;64418;47.536;19.074;2023-01-28T04:44:21;100425.44;;;0.39;88.81
75794;BME280;64418;47.536;19.074;2023-01-28T04:46:46;100430.75;;;0.39;88.84
75794;BME280;64418;47.536;19.074;2023-01-28T04:49:12;100434.28;;;0.40;88.94
75794;BME280;64418;47.536;19.074;2023-01-28T04:51:38;100437.91;;;0.39;89.07
75794;BME280;64418;47.536;19.074;2023-01-28T04:54:04;100430.88;;;0.38;89.13
75794;BME280;64418;47.536;19.074;2023-01-28T04:56:31;100439.59;;;0.40;89.14
75794;BME280;64418;47.536;19.074;2023-01-28T04:58:57;100444.22;;;0.38;88.99
75794;BME280;64418;47.536;19.074;2023-01-28T05:01:23;100438.75;;;0.39;88.94
75794;BME280;64418;47.536;19.074;2023-01-28T05:03:50;100439.59;;;0.40;88.91
75794;BME280;64418;47.536;19.074;2023-01-28T05:06:16;100443.97;;;0.41;88.75
75794;BME280;64418;47.536;19.074;2023-01-28T05:08:42;100447.59;;;0.40;88.51
75794;BME280;64418;47.536;19.074;2023-01-28T05:11:07;100447.31;;;0.43;88.36
75794;BME280;64418;47.536;19.074;2023-01-28T05:13:35;100447.31;;;0.43;88.27
75794;BME280;64418;47.536;19.074;2023-01-28T05:16:03;100445.78;;;0.40;88.32
75794;BME280;64418;47.536;19.074;2023-01-28T05:18:29;100449.12;;;0.42;88.24
75794;BME280;64418;47.536;19.074;2023-01-28T05:20:55;100455.19;;;0.44;88.39
75794;BME280;64418;47.536;19.074;2023-01-28T05:23:24;100454.47;;;0.42;88.47
75794;BME280;64418;47.536;19.074;2023-01-28T05:25:49;100464.28;;;0.42;88.80
75794;BME280;64418;47.536;19.074;2023-01-28T05:28:15;100456.44;;;0.40;88.63
75794;BME280;64418;47.536;19.074;2023-01-28T05:30:42;100468.63;;;0.43;88.39
75794;BME280;64418;47.536;19.074;2023-01-28T05:33:08;100458.94;;;0.42;88.32
75794;BME280;64418;47.536;19.074;2023-01-28T05:35:34;100458.94;;;0.42;88.20
75794;BME280;64418;47.536;19.074;2023-01-28T05:37:59;100458.94;;;0.42;88.52
75794;BME280;64418;47.536;19.074;2023-01-28T05:40:25;100460.91;;;0.40;88.64
75794;BME280;64418;47.536;19.074;2023-01-28T05:42:51;100460.06;;;0.39;88.81
75794;BME280;64418;47.536;19.074;2023-01-28T05:45:17;100465.41;;;0.39;88.68
75794;BME280;64418;47.536;19.074;2023-01-28T05:47:44;100465.53;;;0.38;89.04
75794;BME280;64418;47.536;19.074;2023-01-28T05:50:12;100468.34;;;0.36;89.25
75794;BME280;64418;47.536;19.074;2023-01-28T05:52:38;100464.84;;;0.36;89.36
75794;BME280;64418;47.536;19.074;2023-01-28T05:55:05;100465.81;;;0.35;89.56
75794;BME280;64418;47.536;19.074;2023-01-28T05:57:31;100472.97;;;0.34;89.56
75794;BME280;64418;47.536;19.074;2023-01-28T05:59:57;100477.47;;;0.34;89.60
75794;BME280;64418;47.536;19.074;2023-01-28T06:02:23;100481.09;;;0.33;89.60
75794;BME280;64418;47.536;19.074;2023-01-28T06:04:50;100485.59;;;0.32;89.92
75794;BME280;64418;47.536;19.074;2023-01-28T06:07:15;100483.91;;;0.31;89.88
75794;BME280;64418;47.536;19.074;2023-01-28T06:09:41;100478.72;;;0.30;90.17
75794;BME280;64418;47.536;19.074;2023-01-28T06:12:07;100486.00;;;0.28;90.23
75794;BME280;64418;47.536;19.074;2023-01-28T06:14:33;100488.09;;;0.24;90.60
75794;BME280;64418;47.536;19.074;2023-01-28T06:16:58;100493.56;;;0.23;90.81
75794;BME280;64418;47.536;19.074;2023-01-28T06:19:24;100494.56;;;0.22;90.94
75794;BME280;64418;47.536;19.074;2023-01-28T06:21:52;100500.16;;;0.19;91.05
75794;BME280;64418;47.536;19.074;2023-01-28T06:24:18;100496.50;;;0.20;90.97
75794;BME280;64418;47.536;19.074;2023-01-28T06:26:43;100503.50;;;0.21;90.89
75794;BME280;64418;47.536;19.074;2023-01-28T06:29:10;100504.38;;;0.21;91.02
75794;BME280;64418;47.536;19.074;2023-01-28T06:31:35;100507.16;;;0.20;90.97
75794;BME280;64418;47.536;19.074;2023-01-28T06:34:01;100503.50;;;0.21;90.94
75794;BME280;64418;47.536;19.074;2023-01-28T06:36:27;100512.34;;;0.21;90.80
75794;BME280;64418;47.536;19.074;2023-01-28T06:38:55;100508.84;;;0.21;90.92
75794;BME280;64418;47.536;19.074;2023-01-28T06:41:20;100513.31;;;0.20;90.91
75794;BME280;64418;47.536;19.074;2023-01-28T06:43:49;100515.13;;;0.20;90.89
75794;BME280;64418;47.536;19.074;2023-01-28T06:46:15;100524.81;;;0.21;91.00
75794;BME280;64418;47.536;19.074;2023-01-28T06:48:41;100521.19;;;0.22;91.05
75794;BME280;64418;47.536;19.074;2023-01-28T06:51:07;100526.62;;;0.20;91.16
75794;BME280;64418;47.536;19.074;2023-01-28T06:53:33;100527.38;;;0.22;91.24
75794;BME280;64418;47.536;19.074;2023-01-28T06:56:00;100538.84;;;0.23;91.11
75794;BME280;64418;47.536;19.074;2023-01-28T06:58:25;100538.72;;;0.24;91.00
75794;BME280;64418;47.536;19.074;2023-01-28T07:00:52;100543.19;;;0.24;91.03
75794;BME280;64418;47.536;19.074;2023-01-28T07:03:18;100549.50;;;0.23;91.26
75794;BME280;64418;47.536;19.074;2023-01-28T07:05:44;100548.78;;;0.21;91.53
75794;BME280;64418;47.536;19.074;2023-01-28T07:08:09;100552.16;;;0.23;91.88
75794;BME280;64418;47.536;19.074;2023-01-28T07:10:35;100547.94;;;0.20;92.08
75794;BME280;64418;47.536;19.074;2023-01-28T07:13:03;100553.16;;;0.22;92.22
75794;BME280;64418;47.536;19.074;2023-01-28T07:15:29;100557.62;;;0.21;92.57
75794;BME280;64418;47.536;19.074;2023-01-28T07:17:55;100564.22;;;0.27;92.34
75794;BME280;64418;47.536;19.074;2023-01-28T07:20:21;100548.22;;;0.17;92.50
75794;BME280;64418;47.536;19.074;2023-01-28T07:22:47;100573.63;;;0.31;92.48
75794;BME280;64418;47.536;19.074;2023-01-28T07:25:13;100570.13;;;0.30;92.46
75794;BME280;64418;47.536;19.074;2023-01-28T07:27:45;100574.47;;;0.31;92.50
75794;BME280;64418;47.536;19.074;2023-01-28T07:30:13;100568.47;;;0.29;92.61
75794;BME280;64418;47.536;19.074;2023-01-28T07:32:39;100578.97;;;0.31;92.65
75794;BME280;64418;47.536;19.074;2023-01-28T07:35:06;100575.59;;;0.29;92.86
75794;BME280;64418;47.536;19.074;2023-01-28T07:37:32;100572.53;;;0.33;92.90
75794;BME280;64418;47.536;19.074;2023-01-28T07:39:57;100580.09;;;0.38;92.65
75794;BME280;64418;47.536;19.074;2023-01-28T07:42:24;100572.69;;;0.41;92.34
75794;BME280;64418;47.536;19.074;2023-01-28T07:44:49;100581.50;;;0.42;92.21
75794;BME280;64418;47.536;19.074;2023-01-28T07:47:19;100588.25;;;0.46;92.27
75794;BME280;64418;47.536;19.074;2023-01-28T07:49:45;100580.97;;;0.48;92.21
75794;BME280;64418;47.536;19.074;2023-01-28T07:52:13;100582.97;;;0.56;92.11
75794;BME280;64418;47.536;19.074;2023-01-28T07:54:40;100585.06;;;0.52;92.19
75794;BME280;64418;47.536;19.074;2023-01-28T07:57:07;100593.19;;;0.51;92.07
75794;BME280;64418;47.536;19.074;2023-01-28T07:59:32;100591.66;;;0.58;92.45
75794;BME280;64418;47.536;19.074;2023-01-28T08:01:58;100581.56;;;0.61;92.11
75794;BME280;64418;47.536;19.074;2023-01-28T08:04:29;100592.09;;;0.63;92.17
75794;BME280;64418;47.536;19.074;2023-01-28T08:06:54;100596.28;;;0.65;92.09
75794;BME280;64418;47.536;19.074;2023-01-28T08:09:21;100595.44;;;0.65;92.10
75794;BME280;64418;47.536;19.074;2023-01-28T08:11:47;100596.16;;;0.67;92.05
75794;BME280;64418;47.536;19.074;2023-01-28T08:14:12;100603.75;;;0.71;91.90
75794;BME280;64418;47.536;19.074;2023-01-28T08:16:38;100600.53;;;0.77;91.98
75794;BME280;64418;47.536;19.074;2023-01-28T08:19:05;100608.69;;;0.85;92.08
75794;BME280;64418;47.536;19.074;2023-01-28T08:21:35;100604.03;;;0.87;92.07
75794;BME280;64418;47.536;19.074;2023-01-28T08:24:02;100608.97;;;0.92;91.45
75794;BME280;64418;47.536;19.074;2023-01-28T08:26:28;100605.59;;;0.90;91.83
75794;BME280;64418;47.536;19.074;2023-01-28T08:28:54;100602.22;;;0.88;91.74
75794;BME280;64418;47.536;19.074;2023-01-28T08:31:20;100602.94;;;0.90;91.97
75794;BME280;64418;47.536;19.074;2023-01-28T08:33:45;100607.72;;;0.86;91.64
75794;BME280;64418;47.536;19.074;2023-01-28T08:36:11;100611.62;;;0.92;91.87
75794;BME280;64418;47.536;19.074;2023-01-28T08:38:39;100616.69;;;0.95;91.61
75794;BME280;64418;47.536;19.074;2023-01-28T08:41:06;100607.13;;;1.02;91.05
75794;BME280;64418;47.536;19.074;2023-01-28T08:43:32;100616.41;;;1.08;91.14
75794;BME280;64418;47.536;19.074;2023-01-28T08:45:58;100621.47;;;1.11;91.06
75794;BME280;64418;47.536;19.074;2023-01-28T08:48:23;100623.59;;;1.17;91.09
75794;BME280;64418;47.536;19.074;2023-01-28T08:50:49;100625.41;;;1.07;90.85
75794;BME280;64418;47.536;19.074;2023-01-28T08:53:17;100620.34;;;1.04;91.17
75794;BME280;64418;47.536;19.074;2023-01-28T08:55:44;100628.50;;;1.12;91.56
75794;BME280;64418;47.536;19.074;2023-01-28T08:58:11;100630.44;;;1.00;91.25
75794;BME280;64418;47.536;19.074;2023-01-28T09:00:38;100628.91;;;1.07;91.90
75794;BME280;64418;47.536;19.074;2023-01-28T09:03:04;100637.34;;;1.12;91.21
75794;BME280;64418;47.536;19.074;2023-01-28T09:05:30;100631.72;;;1.25;91.73
75794;BME280;64418;47.536;19.074;2023-01-28T09:07:56;100633.41;;;1.26;91.18
75794;BME280;64418;47.536;19.074;2023-01-28T09:10:28;100641.56;;;1.34;90.79
75794;BME280;64418;47.536;19.074;2023-01-28T09:12:55;100637.75;;;1.46;90.40
75794;BME280;64418;47.536;19.074;2023-01-28T09:15:21;100643.94;;;1.56;90.23
75794;BME280;64418;47.536;19.074;2023-01-28T09:17:47;100649.56;;;1.53;90.25
75794;BME280;64418;47.536;19.074;2023-01-28T09:20:13;100645.88;;;1.64;89.97
75794;BME280;64418;47.536;19.074;2023-01-28T09:22:40;100642.91;;;1.67;90.28
75794;BME280;64418;47.536;19.074;2023-01-28T09:25:07;100656.41;;;1.84;90.22
75794;BME280;64418;47.536;19.074;2023-01-28T09:27:33;100656.84;;;1.80;89.37
75794;BME280;64418;47.536;19.074;2023-01-28T09:30:00;100658.81;;;1.68;89.79
75794;BME280;64418;47.536;19.074;2023-01-28T09:32:26;100652.59;;;1.87;89.46
75794;BME280;64418;47.536;19.074;2023-01-28T09:34:52;100651.56;;;2.07;88.71
75794;BME280;64418;47.536;19.074;2023-01-28T09:37:18;100658.94;;;2.23;88.18
75794;BME280;64418;47.536;19.074;2023-01-28T09:39:43;100655.16;;;2.16;88.21
75794;BME280;64418;47.536;19.074;2023-01-28T09:42:26;100649.75;;;2.08;87.93
75794;BME280;64418;47.536;19.074;2023-01-28T09:45:02;100658.16;;;2.13;87.96
75794;BME280;64418;47.536;19.074;2023-01-28T09:47:33;100646.28;;;2.25;87.07
75794;BME280;64418;47.536;19.074;2023-01-28T09:50:05;100647.37;;;2.32;87.09
75794;BME280;64418;47.536;19.074;2023-01-28T09:52:34;100649.75;;;2.35;86.77
75794;BME280;64418;47.536;19.074;2023-01-28T09:55:02;100642.03;;;2.32;86.83
75794;BME280;64418;47.536;19.074;2023-01-28T09:57:33;100645.19;;;2.55;85.88
75794;BME280;64418;47.536;19.074;2023-01-28T10:00:11;100649.16;;;2.68;85.74
75794;BME280;64418;47.536;19.074;2023-01-28T10:05:30;100649.38;;;2.84;84.60
75794;BME280;64418;47.536;19.074;2023-01-28T10:08:09;100643.56;;;2.89;84.09
75794;BME280;64418;47.536;19.074;2023-01-28T10:10:42;100644.81;;;3.12;82.92
75794;BME280;64418;47.536;19.074;2023-01-28T10:13:19;100638.53;;;3.04;82.92
75794;BME280;64418;47.536;19.074;2023-01-28T10:16:02;100644.06;;;3.20;81.72
75794;BME280;64418;47.536;19.074;2023-01-28T10:18:34;100647.19;;;3.33;81.95
75794;BME280;64418;47.536;19.074;2023-01-28T10:21:07;100641.56;;;3.79;79.57
75794;BME280;64418;47.536;19.074;2023-01-28T10:23:44;100645.59;;;3.83;80.19
75794;BME280;64418;47.536;19.074;2023-01-28T10:26:18;100649.25;;;4.00;78.06
75794;BME280;64418;47.536;19.074;2023-01-28T10:28:46;100636.84;;;4.67;76.03
75794;BME280;64418;47.536;19.074;2023-01-28T10:31:15;100640.37;;;4.67;75.11
75794;BME280;64418;47.536;19.074;2023-01-28T10:33:42;100641.44;;;4.82;73.81
75794;BME280;64418;47.536;19.074;2023-01-28T10:36:08;100639.31;;;5.10;72.01
75794;BME280;64418;47.536;19.074;2023-01-28T10:38:35;100636.50;;;6.01;69.91
75794;BME280;64418;47.536;19.074;2023-01-28T10:41:02;100640.22;;;5.92;69.62
75794;BME280;64418;47.536;19.074;2023-01-28T10:43:31;100636.84;;;5.90;69.00
75794;BME280;64418;47.536;19.074;2023-01-28T10:46:01;100637.09;;;6.35;68.12
75794;BME280;64418;47.536;19.074;2023-01-28T10:48:32;100640.13;;;6.40;66.77
75794;BME280;64418;47.536;19.074;2023-01-28T10:51:01;100644.50;;;8.31;60.46
75794;BME280;64418;47.536;19.074;2023-01-28T10:53:35;100644.31;;;7.81;60.82
75794;BME280;64418;47.536;19.074;2023-01-28T10:56:03;100632.56;;;7.59;62.27
75794;BME280;64418;47.536;19.074;2023-01-28T10:58:33;100634.88;;;6.86;63.32
75794;BME280;64418;47.536;19.074;2023-01-28T11:01:02;100642.03;;;7.55;61.47
75794;BME280;64418;47.536;19.074;2023-01-28T11:03:31;100637.56;;;6.47;65.34
75794;BME280;64418;47.536;19.074;2023-01-28T11:05:58;100645.66;;;6.86;65.04
75794;BME280;64418;47.536;19.074;2023-01-28T11:08:26;100641.00;;;6.16;66.81
75794;BME280;64418;47.536;19.074;2023-01-28T11:10:53;100579.75;;;5.39;68.53
75794;BME280;64418;47.536;19.074;2023-01-28T11:13:21;100631.91;;;6.72;66.00
75794;BME280;64418;47.536;19.074;2023-01-28T11:15:49;100630.13;;;6.02;67.29
75794;BME280;64418;47.536;19.074;2023-01-28T11:18:18;100636.25;;;6.35;65.41
75794;BME280;64418;47.536;19.074;2023-01-28T11:20:52;100634.72;;;6.48;65.06
75794;BME280;64418;47.536;19.074;2023-01-28T11:23:21;100627.09;;;5.48;67.40
75794;BME280;64418;47.536;19.074;2023-01-28T11:25:48;100619.97;;;4.82;69.18
75794;BME280;64418;47.536;19.074;2023-01-28T11:28:25;100621.59;;;4.67;67.73
75794;BME280;64418;47.536;19.074;2023-01-28T11:30:52;100617.72;;;5.36;66.39
75794;BME280;64418;47.536;19.074;2023-01-28T11:33:23;100614.00;;;5.21;65.47
75794;BME280;64418;47.536;19.074;2023-01-28T11:35:55;100619.03;;;5.56;64.00
75794;BME280;64418;47.536;19.074;2023-01-28T11:38:23;100614.66;;;5.31;65.52
75794;BME280;64418;47.536;19.074;2023-01-28T11:40:50;100617.94;;;4.84;64.79
75794;BME280;64418;47.536;19.074;2023-01-28T11:43:16;100619.31;;;4.97;65.77
75794;BME280;64418;47.536;19.074;2023-01-28T11:45:44;100620.03;;;5.15;64.76
75794;BME280;64418;47.536;19.074;2023-01-28T11:48:20;100615.66;;;5.06;64.77
75794;BME280;64418;47.536;19.074;2023-01-28T11:50:57;100607.53;;;4.81;65.51
75794;BME280;64418;47.536;19.074;2023-01-28T11:53:36;100612.03;;;4.73;65.34
75794;BME280;64418;47.536;19.074;2023-01-28T11:56:18;100603.53;;;4.94;65.26
75794;BME280;64418;47.536;19.074;2023-01-28T11:58:56;100590.44;;;4.99;63.67
75794;BME280;64418;47.536;19.074;2023-01-28T12:01:32;100603.84;;;4.82;64.53
75794;BME280;64418;47.536;19.074;2023-01-28T12:04:20;100594.16;;;4.98;63.85
75794;BME280;64418;47.536;19.074;2023-01-28T12:07:22;100602.91;;;5.08;63.91
75794;BME280;64418;47.536;19.074;2023-01-28T12:09:55;100598.84;;;4.96;63.67
75794;BME280;64418;47.536;19.074;2023-01-28T12:12:41;100596.53;;;5.49;63.04
75794;BME280;64418;47.536;19.074;2023-01-28T12:15:39;100602.25;;;5.30;62.11
75794;BME280;64418;47.536;19.074;2023-01-28T12:18:21;100596.53;;;5.81;61.94
75794;BME280;64418;47.536;19.074;2023-01-28T12:20:55;100600.53;;;6.10;59.79
75794;BME280;64418;47.536;19.074;2023-01-28T12:23:34;100599.53;;;5.70;59.62
75794;BME280;64418;47.536;19.074;2023-01-28T12:26:09;100593.16;;;5.55;59.80
75794;BME280;64418;47.536;19.074;2023-01-28T12:28:47;100596.69;;;5.72;59.92
75794;BME280;64418;47.536;19.074;2023-01-28T12:31:30;100596.72;;;5.40;59.96
75794;BME280;64418;47.536;19.074;2023-01-28T12:34:29;100601.22;;;5.23;61.49
75794;BME280;64418;47.536;19.074;2023-01-28T12:37:05;100595.31;;;5.03;61.56
75794;BME280;64418;47.536;19.074;2023-01-28T12:39:43;100594.44;;;4.70;62.45
75794;BME280;64418;47.536;19.074;2023-01-28T12:42:17;100592.44;;;4.89;62.27
75794;BME280;64418;47.536;19.074;2023-01-28T12:44:48;100596.34;;;4.94;62.53
75794;BME280;64418;47.536;19.074;2023-01-28T12:47:19;100588.78;;;4.90;61.73
75794;BME280;64418;47.536;19.074;2023-01-28T12:49:49;100594.66;;;4.93;61.34
75794;BME280;64418;47.536;19.074;2023-01-28T12:52:21;100597.50;;;5.00;61.53
75794;BME280;64418;47.536;19.074;2023-01-28T12:54:56;100602.59;;;5.43;60.40
75794;BME280;64418;47.536;19.074;2023-01-28T12:57:28;100603.06;;;6.11;58.49
75794;BME280;64418;47.536;19.074;2023-01-28T13:00:02;100603.25;;;6.49;57.15
75794;BME280;64418;47.536;19.074;2023-01-28T13:02:41;100599.56;;;5.87;57.59
75794;BME280;64418;47.536;19.074;2023-01-28T13:05:38;100615.19;;;5.59;59.03